createdAt,value
2023-03-22T00:00:41.102Z,52.27
2023-03-22T00:06:09.171Z,44.87
2023-03-22T00:08:35.838Z,61.87
2023-03-22T00:11:06.077Z,67.53
2023-03-22T00:13:35.395Z,51.47
2023-03-22T00:16:14.774Z,63.03
2023-03-22T00:18:50.669Z,53.43
2023-03-22T00:21:17.639Z,53.70
2023-03-22T00:23:45.538Z,65.93
2023-03-22T00:26:13.859Z,48.80
2023-03-22T00:28:40.902Z,68.67
2023-03-22T00:31:17.692Z,56.30
2023-03-22T00:33:59.233Z,56.43
2023-03-22T00:36:28.869Z,58.80
2023-03-22T00:38:55.778Z,68.67
2023-03-22T00:41:24.044Z,46.70
2023-03-22T00:43:51.312Z,52.67
2023-03-22T00:46:24.637Z,53.47
2023-03-22T00:48:51.384Z,48.97
2023-03-22T00:51:23.813Z,57.17
2023-03-22T00:53:51.532Z,68.67
2023-03-22T00:56:18.828Z,57.57
2023-03-22T00:58:48.774Z,54.27
2023-03-22T01:01:15.501Z,47.47
2023-03-22T01:03:43.508Z,51.40
2023-03-22T01:06:11.231Z,45.70
2023-03-22T01:08:40.739Z,46.03
2023-03-22T01:11:08.428Z,49.77
2023-03-22T01:16:35.137Z,48.03
2023-03-22T01:19:08.279Z,50.87
2023-03-22T01:21:36.349Z,50.73
2023-03-22T01:24:05.977Z,48.57
2023-03-22T01:26:32.587Z,46.47
2023-03-22T01:29:04.939Z,44.83
2023-03-22T01:31:35.454Z,52.63
2023-03-22T01:34:02.129Z,46.73
2023-03-22T01:36:28.781Z,42.90
2023-03-22T01:38:58.088Z,49.13
2023-03-22T01:41:34.586Z,49.60
2023-03-22T01:44:15.626Z,48.03
2023-03-22T01:46:44.367Z,43.30
2023-03-22T01:49:19.672Z,41.57
2023-03-22T01:51:48.979Z,47.50
2023-03-22T01:54:21.718Z,53.53
2023-03-22T01:56:48.895Z,57.37
2023-03-22T01:59:16.606Z,57.17
2023-03-22T02:01:51.734Z,54.83
2023-03-22T02:04:23.101Z,52.03
2023-03-22T02:06:53.658Z,45.50
2023-03-22T02:09:36.383Z,47.13
2023-03-22T02:12:19.805Z,45.53
2023-03-22T02:15:03.221Z,47.13
2023-03-22T02:17:50.632Z,51.43
2023-03-22T02:21:03.516Z,46.23
2023-03-22T02:24:09.760Z,48.63
2023-03-22T02:27:10.315Z,48.50
2023-03-22T02:29:44.589Z,50.70
2023-03-22T02:32:51.590Z,47.80
2023-03-22T02:35:46.263Z,48.40
2023-03-22T02:38:57.475Z,49.87
2023-03-22T02:41:42.616Z,51.67
2023-03-22T02:44:21.300Z,43.10
2023-03-22T02:46:59.460Z,45.53
2023-03-22T02:49:32.487Z,49.83
2023-03-22T02:52:04.606Z,44.07
2023-03-22T02:54:44.539Z,46.37
2023-03-22T02:57:19.142Z,50.50
2023-03-22T02:59:49.307Z,44.23
2023-03-22T03:02:18.915Z,41.03
2023-03-22T03:04:49.324Z,43.33
2023-03-22T03:07:19.479Z,49.73
2023-03-22T03:09:47.787Z,40.87
2023-03-22T03:12:24.466Z,53.53
2023-03-22T03:14:51.854Z,47.30
2023-03-22T03:17:28.569Z,43.07
2023-03-22T03:20:21.395Z,46.30
2023-03-22T03:23:00.018Z,51.90
2023-03-22T03:25:42.516Z,44.43
2023-03-22T03:28:16.604Z,45.73
2023-03-22T03:30:48.999Z,45.43
2023-03-22T03:33:19.070Z,39.57
2023-03-22T03:35:56.587Z,42.00
2023-03-22T03:38:26.805Z,40.83
2023-03-22T03:40:58.594Z,47.33
2023-03-22T03:43:25.192Z,41.10
2023-03-22T03:45:55.278Z,42.07
2023-03-22T03:48:24.123Z,45.50
2023-03-22T03:50:53.361Z,48.80
2023-03-22T03:53:20.026Z,41.97
2023-03-22T03:55:49.577Z,42.17
2023-03-22T03:58:16.866Z,44.80
2023-03-22T04:00:45.344Z,43.43
2023-03-22T04:03:18.581Z,49.77
2023-03-22T04:05:51.274Z,40.83
2023-03-22T04:08:26.665Z,41.50
2023-03-22T04:10:56.145Z,48.13
2023-03-22T04:13:24.470Z,45.57
2023-03-22T04:16:02.325Z,40.60
2023-03-22T04:18:29.342Z,46.13
2023-03-22T04:20:56.550Z,38.50
2023-03-22T04:23:27.993Z,36.30
2023-03-22T04:25:58.969Z,42.03
2023-03-22T04:28:29.562Z,46.67
2023-03-22T04:30:56.991Z,44.80
2023-03-22T04:33:23.651Z,47.43
2023-03-22T04:35:55.914Z,38.27
2023-03-22T04:38:34.276Z,38.83
2023-03-22T04:41:00.910Z,33.03
2023-03-22T04:43:37.067Z,41.20
2023-03-22T04:46:03.991Z,41.73
2023-03-22T04:48:39.466Z,38.43
2023-03-22T04:51:10.138Z,44.70
2023-03-22T04:53:40.041Z,44.47
2023-03-22T04:56:08.852Z,35.53
2023-03-22T04:58:54.421Z,44.03
2023-03-22T05:01:21.192Z,50.33
2023-03-22T05:03:47.894Z,50.70
2023-03-22T05:06:43.645Z,42.77
2023-03-22T05:09:10.994Z,48.63
2023-03-22T05:11:43.532Z,46.60
2023-03-22T05:14:31.900Z,45.23
2023-03-22T05:16:58.672Z,48.23
2023-03-22T05:19:28.218Z,42.23
2023-03-22T05:22:01.208Z,44.43
2023-03-22T05:24:31.512Z,50.20
2023-03-22T05:27:00.255Z,50.13
2023-03-22T05:29:36.051Z,45.40
2023-03-22T05:32:02.938Z,44.97
2023-03-22T05:34:38.126Z,53.90
2023-03-22T05:37:07.867Z,46.53
2023-03-22T05:39:38.674Z,44.10
2023-03-22T05:42:05.367Z,40.07
2023-03-22T05:44:32.620Z,38.97
2023-03-22T05:46:59.383Z,62.00
2023-03-22T05:49:26.441Z,47.53
2023-03-22T05:51:56.670Z,45.30
2023-03-22T05:54:23.262Z,40.77
2023-03-22T05:56:51.116Z,45.13
2023-03-22T05:59:17.736Z,43.37
2023-03-22T06:01:45.711Z,41.73
2023-03-22T06:04:18.042Z,43.60
2023-03-22T06:06:44.738Z,47.37
2023-03-22T06:09:17.548Z,42.93
2023-03-22T06:11:50.306Z,42.20
2023-03-22T06:14:22.488Z,40.23
2023-03-22T06:16:52.946Z,50.03
2023-03-22T06:19:25.729Z,43.03
2023-03-22T06:21:53.754Z,41.83
2023-03-22T06:24:26.128Z,52.00
2023-03-22T06:26:52.743Z,44.53
2023-03-22T06:29:22.320Z,45.73
2023-03-22T06:31:48.912Z,49.70
2023-03-22T06:34:33.536Z,41.63
2023-03-22T06:37:00.529Z,40.13
2023-03-22T06:39:27.258Z,43.77
2023-03-22T06:41:53.958Z,46.50
2023-03-22T06:44:29.734Z,34.03
2023-03-22T06:46:59.610Z,34.73
2023-03-22T06:49:27.233Z,33.80
2023-03-22T06:51:54.026Z,32.27
2023-03-22T06:57:11.792Z,37.80
2023-03-22T06:59:38.390Z,38.97
2023-03-22T07:02:05.767Z,34.40
2023-03-22T07:04:36.682Z,40.30
2023-03-22T07:07:03.355Z,37.90
2023-03-22T07:09:34.685Z,36.67
2023-03-22T07:12:01.317Z,41.90
2023-03-22T07:14:31.452Z,36.83
2023-03-22T07:16:58.692Z,44.50
2023-03-22T07:19:26.972Z,39.93
2023-03-22T07:21:54.186Z,37.87
2023-03-22T07:24:20.835Z,33.20
2023-03-22T07:26:53.267Z,32.73
2023-03-22T07:29:22.634Z,33.53
2023-03-22T07:31:52.238Z,39.80
2023-03-22T07:34:19.197Z,32.23
2023-03-22T07:36:58.446Z,30.37
2023-03-22T07:39:25.584Z,30.87
2023-03-22T07:42:01.404Z,38.70
2023-03-22T07:44:34.769Z,28.50
2023-03-22T07:47:06.944Z,34.73
2023-03-22T07:49:36.298Z,29.50
2023-03-22T07:52:07.161Z,28.50
2023-03-22T07:57:25.728Z,35.13
2023-03-22T07:59:52.351Z,27.33
2023-03-22T08:02:24.170Z,39.30
2023-03-22T08:04:53.922Z,30.43
2023-03-22T08:07:24.714Z,38.20
2023-03-22T08:09:51.743Z,26.63
2023-03-22T08:12:21.010Z,27.23
2023-03-22T08:14:50.242Z,31.27
2023-03-22T08:17:17.762Z,26.20
2023-03-22T08:19:50.700Z,27.37
2023-03-22T08:22:17.408Z,29.00
2023-03-22T08:24:53.757Z,27.50
2023-03-22T08:27:20.583Z,19.67
2023-03-22T08:30:04.478Z,25.43
2023-03-22T08:32:32.407Z,29.97
2023-03-22T08:35:02.351Z,29.77
2023-03-22T08:37:28.965Z,25.67
2023-03-22T08:39:56.360Z,27.73
2023-03-22T08:42:23.005Z,27.00
2023-03-22T08:44:51.333Z,21.40
2023-03-22T08:47:18.090Z,23.00
2023-03-22T08:49:50.000Z,21.47
2023-03-22T08:52:19.814Z,28.27
2023-03-22T08:54:46.419Z,31.50
2023-03-22T08:57:21.731Z,20.30
2023-03-22T08:59:51.698Z,17.83
2023-03-22T09:02:21.410Z,26.77
2023-03-22T09:04:49.415Z,27.43
2023-03-22T09:07:25.509Z,32.07
2023-03-22T09:09:54.686Z,20.97
2023-03-22T09:12:24.589Z,42.00
2023-03-22T09:14:57.383Z,30.33
2023-03-22T09:17:26.576Z,23.30
2023-03-22T09:20:11.082Z,25.57
2023-03-22T09:22:41.574Z,25.90
2023-03-22T09:25:10.900Z,23.47
2023-03-22T09:27:48.550Z,26.80
2023-03-22T09:30:20.974Z,19.67
2023-03-22T09:32:47.603Z,28.80
2023-03-22T09:35:14.384Z,17.50
2023-03-22T09:37:44.867Z,25.97
2023-03-22T09:40:15.290Z,24.27
2023-03-22T09:42:45.411Z,24.10
2023-03-22T09:45:16.796Z,22.00
2023-03-22T09:47:50.821Z,18.70
2023-03-22T09:50:40.729Z,31.37
2023-03-22T09:53:13.332Z,19.23
2023-03-22T09:55:44.795Z,18.63
2023-03-22T09:58:23.551Z,19.10
2023-03-22T10:00:55.373Z,19.90
2023-03-22T10:03:44.719Z,19.70
2023-03-22T10:06:17.710Z,17.03
2023-03-22T10:09:01.112Z,17.87
2023-03-22T10:11:42.823Z,18.37
2023-03-22T10:14:26.935Z,20.87
2023-03-22T10:17:02.891Z,20.73
2023-03-22T10:19:34.308Z,23.33
2023-03-22T10:22:09.664Z,21.00
2023-03-22T10:24:38.931Z,18.67
2023-03-22T10:27:15.067Z,20.23
2023-03-22T10:29:46.022Z,19.43
2023-03-22T10:32:17.683Z,15.97
2023-03-22T10:34:45.754Z,18.87
2023-03-22T10:37:16.190Z,16.40
2023-03-22T10:39:48.752Z,16.40
2023-03-22T10:42:18.576Z,18.50
2023-03-22T10:44:49.274Z,14.53
2023-03-22T10:47:20.772Z,17.03
2023-03-22T10:49:56.476Z,19.27
2023-03-22T10:52:39.786Z,21.73
2023-03-22T10:55:12.119Z,21.37
2023-03-22T10:57:42.256Z,15.60
2023-03-22T11:00:14.736Z,15.87
2023-03-22T11:02:54.745Z,18.73
2023-03-22T11:05:28.006Z,21.93
2023-03-22T11:07:57.458Z,15.90
2023-03-22T11:10:27.820Z,19.60
2023-03-22T11:13:22.696Z,15.17
2023-03-22T11:15:54.026Z,16.63
2023-03-22T11:18:27.809Z,15.50
2023-03-22T11:20:58.381Z,15.10
2023-03-22T11:23:26.441Z,16.40
2023-03-22T11:25:59.643Z,12.53
2023-03-22T11:28:36.797Z,12.87
2023-03-22T11:31:07.795Z,9.53
2023-03-22T11:33:36.242Z,12.67
2023-03-22T11:36:18.495Z,12.50
2023-03-22T11:38:51.437Z,15.50
2023-03-22T11:41:23.275Z,12.23
2023-03-22T11:43:54.788Z,19.77
2023-03-22T11:46:23.144Z,18.60
2023-03-22T11:48:51.847Z,18.80
2023-03-22T11:51:29.035Z,12.73
2023-03-22T11:54:04.497Z,31.77
2023-03-22T11:56:40.597Z,31.40
2023-03-22T11:59:19.649Z,19.50
2023-03-22T12:01:52.785Z,11.97
2023-03-22T12:04:32.577Z,13.33
2023-03-22T12:07:02.594Z,10.23
2023-03-22T12:09:43.218Z,12.13
2023-03-22T12:12:14.308Z,10.30
2023-03-22T12:14:51.071Z,18.90
2023-03-22T12:17:26.314Z,12.00
2023-03-22T12:20:09.757Z,10.10
2023-03-22T12:22:49.867Z,12.63
2023-03-22T12:25:20.228Z,14.77
2023-03-22T12:27:50.769Z,9.80
2023-03-22T12:30:23.241Z,8.97
2023-03-22T12:32:57.198Z,12.07
2023-03-22T12:35:30.869Z,11.27
2023-03-22T12:38:00.987Z,11.80
2023-03-22T12:40:32.087Z,15.00
2023-03-22T12:43:03.823Z,10.73
2023-03-22T12:45:36.469Z,14.30
2023-03-22T12:48:14.839Z,16.60
2023-03-22T12:50:56.390Z,13.60
2023-03-22T12:53:42.781Z,13.97
2023-03-22T12:56:12.389Z,12.57
2023-03-22T12:58:48.655Z,17.47
2023-03-22T13:01:32.541Z,13.20
2023-03-22T13:04:20.062Z,11.57
2023-03-22T13:07:01.091Z,17.20
2023-03-22T13:09:46.485Z,8.10
2023-03-22T13:12:31.535Z,9.37
2023-03-22T13:15:01.175Z,16.70
2023-03-22T13:17:49.615Z,9.53
2023-03-22T13:20:33.227Z,11.30
2023-03-22T13:23:35.621Z,8.43
2023-03-22T13:26:05.231Z,9.27
2023-03-22T13:28:36.711Z,4.67
2023-03-22T13:31:04.249Z,13.10
2023-03-22T13:33:42.018Z,13.80
2023-03-22T13:36:24.213Z,10.97
2023-03-22T13:39:02.471Z,10.40
2023-03-22T13:41:34.776Z,6.33
2023-03-22T13:44:18.367Z,12.37
2023-03-22T13:46:50.825Z,9.93
2023-03-22T13:49:43.939Z,7.63
2023-03-22T13:52:26.888Z,10.83
2023-03-22T13:54:56.826Z,5.67
2023-03-22T13:57:46.911Z,13.43
2023-03-22T14:00:34.377Z,8.50
2023-03-22T14:03:05.888Z,9.37
2023-03-22T14:05:37.355Z,17.90
2023-03-22T14:08:05.238Z,7.17
2023-03-22T14:10:41.295Z,8.93
2023-03-22T14:13:23.137Z,4.27
2023-03-22T14:15:51.613Z,8.70
2023-03-22T14:18:25.899Z,9.33
2023-03-22T14:20:57.039Z,7.37
